createdAt,value
2023-04-23T00:00:23.403Z,91.35
2023-04-23T00:03:10.778Z,91.22
2023-04-23T00:05:57.882Z,91.01
2023-04-23T00:08:44.474Z,90.72
2023-04-23T00:11:30.871Z,90.98
2023-04-23T00:14:18.411Z,91.23
2023-04-23T00:17:04.924Z,91.11
2023-04-23T00:19:51.645Z,90.92
2023-04-23T00:22:37.633Z,91.26
2023-04-23T00:25:23.832Z,90.81
2023-04-23T00:28:16.995Z,90.55
2023-04-23T00:31:11.207Z,90.41
2023-04-23T00:34:04.103Z,90.13
2023-04-23T00:36:56.482Z,89.74
2023-04-23T00:43:02.552Z,89.17
2023-04-23T00:49:13.173Z,89.23
2023-04-23T00:52:06.910Z,89.11
2023-04-23T00:58:08.681Z,89.23
2023-04-23T01:04:15.846Z,89.47
2023-04-23T01:10:22.302Z,90.12
2023-04-23T01:16:28.946Z,89.76
2023-04-23T01:19:22.668Z,89.94
2023-04-23T01:22:22.720Z,89.86
2023-04-23T01:25:15.522Z,89.92
2023-04-23T01:28:09.005Z,89.75
2023-04-23T01:31:01.879Z,89.67
2023-04-23T01:33:56.627Z,89.69
2023-04-23T01:36:49.988Z,89.70
2023-04-23T01:42:54.616Z,89.98
2023-04-23T01:45:47.673Z,89.95
2023-04-23T01:48:40.563Z,89.87
2023-04-23T01:51:34.129Z,90.12
2023-04-23T01:54:26.888Z,89.96
2023-04-23T01:57:23.881Z,89.95
2023-04-23T02:00:18.842Z,89.91
2023-04-23T02:03:11.640Z,89.90
2023-04-23T02:06:29.806Z,89.83
2023-04-23T02:09:22.372Z,89.91
2023-04-23T02:12:14.753Z,89.89
2023-04-23T02:15:09.116Z,89.86
2023-04-23T02:17:56.678Z,90.01
2023-04-23T02:20:50.092Z,89.58
2023-04-23T02:23:42.526Z,89.15
2023-04-23T02:26:35.761Z,89.23
2023-04-23T02:29:28.519Z,89.10
2023-04-23T02:35:35.890Z,88.43
2023-04-23T02:38:28.810Z,88.81
2023-04-23T02:44:50.478Z,89.05
2023-04-23T02:47:42.627Z,88.64
2023-04-23T02:54:23.838Z,88.05
2023-04-23T02:57:17.811Z,87.98
2023-04-23T03:00:12.482Z,87.49
2023-04-23T03:03:08.724Z,87.30
2023-04-23T03:06:03.732Z,87.07
2023-04-23T03:08:56.842Z,87.17
2023-04-23T03:11:50.905Z,86.89
2023-04-23T03:14:43.602Z,86.64
2023-04-23T03:20:50.062Z,86.52
2023-04-23T03:23:43.492Z,86.62
2023-04-23T03:26:42.153Z,86.63
2023-04-23T03:29:36.151Z,86.41
2023-04-23T03:32:28.483Z,86.55
2023-04-23T03:35:21.792Z,86.39
2023-04-23T03:38:15.680Z,86.24
2023-04-23T03:41:08.324Z,86.18
2023-04-23T03:44:00.597Z,86.35
2023-04-23T03:47:14.192Z,86.38
2023-04-23T03:50:08.103Z,86.33
2023-04-23T03:53:01.409Z,86.36
2023-04-23T03:56:13.480Z,86.19
2023-04-23T03:59:14.655Z,86.33
2023-04-23T04:02:07.765Z,86.13
2023-04-23T04:05:28.930Z,86.64
2023-04-23T04:08:23.396Z,87.17
2023-04-23T04:11:17.221Z,87.16
2023-04-23T04:14:09.485Z,87.19
2023-04-23T04:16:56.864Z,87.60
2023-04-23T04:19:49.882Z,87.52
2023-04-23T04:22:42.567Z,87.21
2023-04-23T04:25:39.808Z,87.39
2023-04-23T04:28:36.080Z,87.25
2023-04-23T04:31:29.021Z,86.67
2023-04-23T04:37:50.684Z,87.13
2023-04-23T04:40:45.525Z,86.93
2023-04-23T04:43:38.379Z,86.99
2023-04-23T04:46:31.854Z,86.94
2023-04-23T04:52:36.273Z,87.26
2023-04-23T04:55:28.283Z,87.14
2023-04-23T04:58:22.392Z,87.21
2023-04-23T05:01:15.022Z,86.88
2023-04-23T05:04:08.296Z,86.99
2023-04-23T05:07:00.569Z,87.26
2023-04-23T05:09:53.698Z,87.15
2023-04-23T05:12:46.598Z,86.85
2023-04-23T05:15:40.896Z,87.10
2023-04-23T05:18:33.414Z,86.91
2023-04-23T05:21:27.323Z,87.07
2023-04-23T05:24:20.422Z,86.85
2023-04-23T05:27:13.965Z,87.09
2023-04-23T05:30:09.289Z,86.88
2023-04-23T05:33:04.739Z,86.62
2023-04-23T05:35:57.786Z,85.82
2023-04-23T05:38:50.488Z,85.93
2023-04-23T05:41:42.598Z,85.65
2023-04-23T05:44:35.606Z,85.42
2023-04-23T05:48:05.856Z,85.16
2023-04-23T05:50:59.805Z,84.15
2023-04-23T05:54:09.001Z,83.52
2023-04-23T05:56:59.603Z,83.44
2023-04-23T05:59:52.455Z,83.90
2023-04-23T06:02:44.575Z,83.81
2023-04-23T06:05:38.119Z,83.82
2023-04-23T06:08:31.726Z,83.13
2023-04-23T06:11:24.269Z,82.83
2023-04-23T06:14:16.474Z,82.54
2023-04-23T06:17:08.519Z,81.85
2023-04-23T06:23:14.082Z,82.28
2023-04-23T06:26:08.210Z,78.92
2023-04-23T06:29:00.662Z,73.23
2023-04-23T06:32:02.678Z,65.82
2023-04-23T06:35:01.332Z,56.08
2023-04-23T06:37:54.562Z,51.87
2023-04-23T06:40:47.694Z,49.98
2023-04-23T06:44:04.624Z,46.98
2023-04-23T06:47:02.823Z,48.79
2023-04-23T06:49:55.409Z,44.31
2023-04-23T06:52:49.678Z,43.84
2023-04-23T06:55:49.749Z,43.25
2023-04-23T06:58:42.776Z,42.05
2023-04-23T07:01:43.442Z,41.58
2023-04-23T07:04:37.038Z,40.25
2023-04-23T07:07:29.619Z,39.09
2023-04-23T07:10:22.930Z,37.88
2023-04-23T07:13:20.479Z,38.58
2023-04-23T07:16:12.427Z,39.40
2023-04-23T07:22:52.665Z,36.30
2023-04-23T07:25:45.617Z,36.20
2023-04-23T07:28:38.939Z,35.37
2023-04-23T07:31:31.567Z,35.43
2023-04-23T07:34:24.514Z,36.30
2023-04-23T07:40:34.372Z,34.16
2023-04-23T07:43:26.679Z,35.62
2023-04-23T07:46:20.002Z,33.32
2023-04-23T07:52:23.338Z,29.52
2023-04-23T07:58:24.135Z,29.21
2023-04-23T08:01:16.648Z,28.70
2023-04-23T08:04:09.655Z,27.87
2023-04-23T08:07:02.804Z,28.63
2023-04-23T08:09:55.314Z,28.91
2023-04-23T08:12:47.750Z,28.01
2023-04-23T08:15:42.185Z,29.10
2023-04-23T08:18:35.187Z,30.55
2023-04-23T08:21:28.863Z,31.01
2023-04-23T08:27:42.937Z,33.29
2023-04-23T08:30:35.523Z,33.34
2023-04-23T08:33:29.102Z,31.12
2023-04-23T08:36:21.504Z,31.98
2023-04-23T08:39:13.789Z,33.81
2023-04-23T08:42:12.221Z,34.87
2023-04-23T08:48:39.647Z,34.22
2023-04-23T08:51:32.706Z,37.43
2023-04-23T08:57:44.376Z,37.85
2023-04-23T09:00:36.658Z,37.01
2023-04-23T09:06:43.690Z,38.99
2023-04-23T09:12:49.034Z,37.26
2023-04-23T09:15:43.462Z,37.93
2023-04-23T09:21:49.295Z,37.79
2023-04-23T09:24:43.313Z,38.78
2023-04-23T09:30:52.204Z,37.90
2023-04-23T09:36:58.340Z,36.53
2023-04-23T09:39:53.403Z,38.28
2023-04-23T09:42:48.383Z,39.53
2023-04-23T09:45:48.994Z,38.97
2023-04-23T09:48:42.531Z,38.81
2023-04-23T09:51:28.923Z,37.64
2023-04-23T09:54:18.557Z,37.46
2023-04-23T09:57:12.278Z,40.31
2023-04-23T10:00:15.355Z,40.98
2023-04-23T10:03:09.999Z,39.25
2023-04-23T10:06:03.170Z,42.50
2023-04-23T10:12:36.891Z,38.16
2023-04-23T10:15:31.133Z,41.94
2023-04-23T10:21:46.692Z,40.32
2023-04-23T10:27:59.211Z,40.61
2023-04-23T10:30:52.041Z,41.86
2023-04-23T10:33:49.292Z,43.39
2023-04-23T10:36:41.826Z,40.95
2023-04-23T10:39:30.037Z,39.66
2023-04-23T10:42:16.721Z,38.98
2023-04-23T10:45:31.230Z,38.37
2023-04-23T10:48:17.355Z,37.48
2023-04-23T10:51:28.399Z,38.83
2023-04-23T10:57:21.981Z,43.36
2023-04-23T11:03:42.625Z,40.22
2023-04-23T11:09:47.702Z,39.34
2023-04-23T11:16:15.659Z,39.11
2023-04-23T11:22:24.835Z,37.42
2023-04-23T11:25:20.836Z,40.29
2023-04-23T11:28:13.951Z,41.61
2023-04-23T11:31:07.030Z,42.97
2023-04-23T11:33:59.373Z,44.07
2023-04-23T11:36:53.303Z,43.16
2023-04-23T11:39:49.138Z,42.01
2023-04-23T11:42:43.412Z,42.07
2023-04-23T11:45:36.041Z,42.31
2023-04-23T11:48:28.773Z,40.22
2023-04-23T11:51:26.396Z,39.22
2023-04-23T11:54:20.195Z,38.78
2023-04-23T11:57:14.482Z,38.85
2023-04-23T12:00:14.806Z,38.45
2023-04-23T12:06:20.604Z,39.21
2023-04-23T12:09:14.607Z,42.12
2023-04-23T12:12:07.645Z,41.00
2023-04-23T12:15:06.477Z,40.04
2023-04-23T12:18:09.883Z,41.27
2023-04-23T12:21:06.139Z,41.67
2023-04-23T12:23:59.019Z,39.46
2023-04-23T12:26:54.350Z,39.48
2023-04-23T12:29:47.764Z,39.93
2023-04-23T12:36:02.309Z,42.05
2023-04-23T12:38:54.938Z,40.85
2023-04-23T12:41:47.393Z,40.24
2023-04-23T12:44:39.765Z,42.06
2023-04-23T12:47:32.727Z,42.36
2023-04-23T12:50:25.708Z,42.72
2023-04-23T12:53:20.499Z,42.39
2023-04-23T12:56:12.924Z,40.31
2023-04-23T12:59:37.607Z,39.59
2023-04-23T13:02:30.208Z,40.37
2023-04-23T13:05:36.842Z,38.05
2023-04-23T13:08:31.176Z,37.36
2023-04-23T13:11:24.094Z,35.14
2023-04-23T13:14:16.806Z,35.90
2023-04-23T13:17:09.910Z,36.20
2023-04-23T13:20:02.657Z,36.71
2023-04-23T13:26:16.010Z,36.73
2023-04-23T13:32:55.573Z,38.40
2023-04-23T13:36:05.176Z,38.55
2023-04-23T13:38:54.655Z,35.54
2023-04-23T13:41:59.106Z,36.53
2023-04-23T13:48:34.621Z,37.19
2023-04-23T13:52:04.033Z,36.91
2023-04-23T13:54:57.773Z,36.64
2023-04-23T13:57:52.150Z,36.75
2023-04-23T14:00:45.015Z,36.87
2023-04-23T14:03:37.909Z,36.61
2023-04-23T14:06:30.697Z,33.64
2023-04-23T14:09:52.560Z,34.25
2023-04-23T14:12:45.486Z,34.22
2023-04-23T14:15:52.894Z,35.97
2023-04-23T14:18:46.354Z,39.99
2023-04-23T14:25:03.528Z,43.93
2023-04-23T14:31:01.928Z,41.71
2023-04-23T14:33:58.684Z,41.77
2023-04-23T14:36:53.267Z,41.63
2023-04-23T14:39:46.577Z,43.52
2023-04-23T14:42:38.861Z,43.96
2023-04-23T14:45:32.780Z,44.83
2023-04-23T14:48:37.070Z,45.23
2023-04-23T14:51:31.460Z,45.67
2023-04-23T14:54:23.836Z,43.40
2023-04-23T14:57:16.588Z,44.03
2023-04-23T15:00:12.949Z,45.86
2023-04-23T15:03:10.378Z,43.75
2023-04-23T15:06:02.930Z,42.58
2023-04-23T15:08:57.178Z,42.41
2023-04-23T15:11:50.000Z,42.21
2023-04-23T15:14:48.827Z,39.92
2023-04-23T15:17:41.946Z,39.03
2023-04-23T15:20:50.886Z,38.08
2023-04-23T15:23:42.141Z,36.40
2023-04-23T15:26:36.233Z,39.05
2023-04-23T15:32:39.634Z,44.74
2023-04-23T15:38:49.221Z,56.56
2023-04-23T15:44:59.487Z,67.54
2023-04-23T15:47:52.200Z,70.30
2023-04-23T15:50:44.634Z,74.02
2023-04-23T15:53:35.575Z,76.79
2023-04-23T15:56:27.714Z,77.61
2023-04-23T15:59:21.006Z,79.16
2023-04-23T16:02:15.260Z,78.59
2023-04-23T16:05:08.392Z,78.55
2023-04-23T16:08:00.664Z,79.21
2023-04-23T16:10:54.809Z,79.97
2023-04-23T16:13:47.761Z,80.78
2023-04-23T16:16:40.786Z,81.77
2023-04-23T16:19:35.008Z,82.22
2023-04-23T16:22:27.852Z,82.49
2023-04-23T16:25:20.704Z,82.74
2023-04-23T16:28:13.944Z,81.98
2023-04-23T16:31:06.860Z,82.32
2023-04-23T16:34:00.350Z,81.56
2023-04-23T16:36:54.339Z,80.87
2023-04-23T16:39:46.621Z,78.88
2023-04-23T16:42:34.037Z,76.56
2023-04-23T16:45:26.914Z,76.34
2023-04-23T16:48:20.074Z,76.88
2023-04-23T16:51:13.282Z,76.44
2023-04-23T16:54:08.425Z,75.26
2023-04-23T16:57:01.964Z,74.62
2023-04-23T16:59:54.986Z,74.22
2023-04-23T17:02:48.044Z,73.62
2023-04-23T17:05:40.861Z,72.70
2023-04-23T17:08:33.801Z,72.82
2023-04-23T17:12:04.010Z,72.69
2023-04-23T17:14:58.286Z,73.54
2023-04-23T17:18:06.439Z,72.90
2023-04-23T17:20:58.154Z,71.85
2023-04-23T17:27:12.096Z,71.41
2023-04-23T17:30:07.911Z,71.52
2023-04-23T17:33:01.257Z,70.50
2023-04-23T17:35:55.174Z,70.87
2023-04-23T17:38:47.720Z,71.11
2023-04-23T17:41:40.937Z,72.67
2023-04-23T17:44:34.934Z,74.31
2023-04-23T17:47:28.890Z,75.02
2023-04-23T17:50:22.562Z,76.09
2023-04-23T17:53:14.829Z,76.58
2023-04-23T17:56:07.875Z,77.42
2023-04-23T17:59:01.337Z,78.68
2023-04-23T18:01:53.979Z,79.64
2023-04-23T18:04:48.460Z,80.82
2023-04-23T18:07:42.136Z,80.97
2023-04-23T18:10:34.602Z,81.66
2023-04-23T18:13:26.535Z,82.17
2023-04-23T18:16:18.801Z,82.17
2023-04-23T18:19:11.660Z,83.09
2023-04-23T18:22:04.809Z,83.70
2023-04-23T18:24:57.862Z,83.65
2023-04-23T18:27:50.982Z,83.74
2023-04-23T18:30:44.037Z,84.44
2023-04-23T18:33:38.825Z,84.63
2023-04-23T18:36:33.325Z,84.77
2023-04-23T18:39:29.054Z,84.54
2023-04-23T18:42:24.805Z,85.12
2023-04-23T18:45:18.045Z,85.87
2023-04-23T18:48:44.590Z,85.17
2023-04-23T18:51:39.069Z,85.92
2023-04-23T18:54:32.916Z,86.12
2023-04-23T19:00:38.096Z,86.13
2023-04-23T19:03:31.096Z,86.20
2023-04-23T19:06:24.112Z,86.97
2023-04-23T19:09:16.861Z,86.81
2023-04-23T19:12:11.291Z,86.89
2023-04-23T19:15:28.720Z,86.43
2023-04-23T19:18:22.579Z,87.02
2023-04-23T19:21:15.114Z,86.85
2023-04-23T19:24:09.536Z,86.38
2023-04-23T19:27:02.936Z,87.09
2023-04-23T19:29:57.184Z,87.14
2023-04-23T19:32:50.112Z,87.00
2023-04-23T19:35:46.787Z,87.79
2023-04-23T19:38:39.585Z,87.98
2023-04-23T19:45:19.246Z,88.49
2023-04-23T19:48:12.068Z,88.45
2023-04-23T19:51:04.741Z,88.44
2023-04-23T19:53:58.170Z,88.82
2023-04-23T19:56:50.548Z,89.21
2023-04-23T19:59:43.041Z,89.00
2023-04-23T20:02:37.428Z,89.05
2023-04-23T20:05:29.751Z,89.22
2023-04-23T20:08:41.306Z,89.29
2023-04-23T20:14:55.653Z,89.38
2023-04-23T20:21:10.739Z,89.46
2023-04-23T20:24:03.998Z,89.90
2023-04-23T20:26:58.485Z,89.84
2023-04-23T20:29:51.466Z,90.14
2023-04-23T20:32:43.844Z,90.07
2023-04-23T20:39:00.176Z,89.60
2023-04-23T20:41:54.718Z,89.41
2023-04-23T20:44:48.793Z,89.29
2023-04-23T20:47:44.275Z,89.56
2023-04-23T20:50:37.020Z,89.92
2023-04-23T20:53:30.226Z,89.92
2023-04-23T20:57:00.047Z,89.70
2023-04-23T20:59:54.103Z,89.93
2023-04-23T21:02:47.129Z,90.09
2023-04-23T21:09:00.378Z,89.60
2023-04-23T21:11:52.562Z,89.36
2023-04-23T21:14:44.922Z,89.85
2023-04-23T21:17:39.483Z,90.65
2023-04-23T21:20:32.193Z,91.09
2023-04-23T21:23:25.058Z,91.22
2023-04-23T21:29:54.205Z,90.25
2023-04-23T21:32:48.345Z,90.54
2023-04-23T21:35:40.586Z,90.12
2023-04-23T21:38:34.158Z,90.24
2023-04-23T21:41:27.421Z,90.10
2023-04-23T21:44:20.700Z,90.10
2023-04-23T21:51:02.154Z,90.79
2023-04-23T21:54:26.497Z,90.45
2023-04-23T21:57:18.839Z,89.93
2023-04-23T22:00:13.973Z,89.69
2023-04-23T22:03:09.916Z,89.31
2023-04-23T22:06:04.914Z,88.51
2023-04-23T22:08:57.974Z,88.37
2023-04-23T22:15:06.562Z,87.59
2023-04-23T22:18:02.303Z,87.60
2023-04-23T22:20:57.730Z,88.00
2023-04-23T22:27:05.701Z,88.02
2023-04-23T22:30:00.388Z,88.36
2023-04-23T22:32:54.929Z,88.50
2023-04-23T22:35:49.750Z,88.31
2023-04-23T22:38:43.143Z,88.26
2023-04-23T22:41:38.644Z,89.01
2023-04-23T22:44:33.356Z,89.09
2023-04-23T22:47:28.392Z,89.39
2023-04-23T22:50:24.810Z,90.46
2023-04-23T22:53:19.030Z,89.50
2023-04-23T22:56:12.493Z,89.40
2023-04-23T22:59:05.879Z,89.16
2023-04-23T23:02:03.124Z,88.24
2023-04-23T23:04:55.984Z,87.93
2023-04-23T23:07:51.812Z,87.49
2023-04-23T23:10:47.522Z,87.61
2023-04-23T23:13:40.544Z,86.64
2023-04-23T23:16:32.761Z,85.46
2023-04-23T23:19:27.963Z,84.49
2023-04-23T23:22:20.883Z,83.46
2023-04-23T23:25:17.693Z,83.49
2023-04-23T23:28:11.130Z,84.04
2023-04-23T23:31:03.898Z,83.41
2023-04-23T23:33:57.051Z,83.04
2023-04-23T23:36:45.278Z,81.40
2023-04-23T23:39:31.110Z,80.47
2023-04-23T23:42:16.928Z,78.29
2023-04-23T23:45:04.036Z,76.57
2023-04-23T23:47:50.237Z,75.88
2023-04-23T23:50:36.410Z,76.10
2023-04-23T23:56:36.470Z,75.81
2023-04-23T23:59:22.776Z,75.33
